Houston, Ohio
Current Conditions -  °F | °C
As of 9:55 AM on Wednesday 22 Oct 2014 (Local Time) from KVES Reporting Station
Overcast Overcast  
Wind Chill: 37°   Ceiling: 2400
Heat Index: 43°   Visibility: 10mi
Dew Point: 41°   Wind: 10mph
Humidity: 93%   Direction: 10°N
Pressure: 30.3"   Gusts: NA
Location:  40.25°N, 84.34°W
Report Text: KVES 221355Z AUTO 01009KT 10SM SCT011 OVC024 06/05 A3030 RMK AO2
Loading
Personal Weather Stations






























Interactive Weather Map
Tropical Storm Tracking
New forecast layout! Learn more

10-Day Weather Forecast

Advertisements
Track Severe Weather on mobile